sensor_id;sensor_type;location;lat;lon;timestamp;temperature;humidity
13035;DHT22;6584;48.022;11.810;2022-08-03T00:02:40;19.30;99.90
13035;DHT22;6584;48.022;11.810;2022-08-03T00:05:07;19.30;99.90
13035;DHT22;6584;48.022;11.810;2022-08-03T00:07:33;19.30;99.90
13035;DHT22;6584;48.022;11.810;2022-08-03T00:10:01;19.20;99.90
13035;DHT22;6584;48.022;11.810;2022-08-03T00:12:27;19.20;99.90
13035;DHT22;6584;48.022;11.810;2022-08-03T00:14:52;19.20;99.90
13035;DHT22;6584;48.022;11.810;2022-08-03T00:17:18;19.20;99.90
13035;DHT22;6584;48.022;11.810;2022-08-03T00:19:43;19.10;99.90
13035;DHT22;6584;48.022;11.810;2022-08-03T00:22:09;19.10;99.90
13035;DHT22;6584;48.022;11.810;2022-08-03T00:24:34;19.10;99.90
13035;DHT22;6584;48.022;11.810;2022-08-03T00:27:00;19.00;99.90
13035;DHT22;6584;48.022;11.810;2022-08-03T00:29:26;19.00;99.90
13035;DHT22;6584;48.022;11.810;2022-08-03T00:31:51;18.90;99.90
13035;DHT22;6584;48.022;11.810;2022-08-03T00:34:17;19.00;99.90
13035;DHT22;6584;48.022;11.810;2022-08-03T00:36:42;19.00;99.90
13035;DHT22;6584;48.022;11.810;2022-08-03T00:39:08;19.00;99.90
13035;DHT22;6584;48.022;11.810;2022-08-03T00:41:33;19.00;99.90
13035;DHT22;6584;48.022;11.810;2022-08-03T00:43:59;19.00;99.90
13035;DHT22;6584;48.022;11.810;2022-08-03T00:46:24;19.00;99.90
13035;DHT22;6584;48.022;11.810;2022-08-03T00:48:51;18.90;99.90
13035;DHT22;6584;48.022;11.810;2022-08-03T00:51:18;18.90;99.90
13035;DHT22;6584;48.022;11.810;2022-08-03T00:53:44;18.90;99.90
13035;DHT22;6584;48.022;11.810;2022-08-03T00:56:13;18.90;99.90
13035;DHT22;6584;48.022;11.810;2022-08-03T00:58:39;18.90;99.90
13035;DHT22;6584;48.022;11.810;2022-08-03T01:01:04;18.80;99.90
13035;DHT22;6584;48.022;11.810;2022-08-03T01:03:31;18.80;99.90
13035;DHT22;6584;48.022;11.810;2022-08-03T01:05:59;18.80;99.90
13035;DHT22;6584;48.022;11.810;2022-08-03T01:08:47;18.80;99.90
13035;DHT22;6584;48.022;11.810;2022-08-03T01:14:19;18.70;99.90
13035;DHT22;6584;48.022;11.810;2022-08-03T01:17:02;18.60;99.90
13035;DHT22;6584;48.022;11.810;2022-08-03T01:22:16;18.60;99.90
13035;DHT22;6584;48.022;11.810;2022-08-03T01:25:07;18.70;99.90
13035;DHT22;6584;48.022;11.810;2022-08-03T01:30:27;18.60;99.90
13035;DHT22;6584;48.022;11.810;2022-08-03T01:33:13;18.50;99.90
13035;DHT22;6584;48.022;11.810;2022-08-03T01:35:48;18.50;99.90
13035;DHT22;6584;48.022;11.810;2022-08-03T01:38:23;18.40;99.90
13035;DHT22;6584;48.022;11.810;2022-08-03T01:40:52;18.40;99.90
13035;DHT22;6584;48.022;11.810;2022-08-03T01:43:22;18.30;99.90
13035;DHT22;6584;48.022;11.810;2022-08-03T01:45:50;18.30;99.90
13035;DHT22;6584;48.022;11.810;2022-08-03T01:48:17;18.20;99.90
13035;DHT22;6584;48.022;11.810;2022-08-03T01:50:44;18.20;99.90
13035;DHT22;6584;48.022;11.810;2022-08-03T01:53:14;18.10;99.90
13035;DHT22;6584;48.022;11.810;2022-08-03T01:55:43;18.10;99.90
13035;DHT22;6584;48.022;11.810;2022-08-03T01:58:10;18.10;99.90
13035;DHT22;6584;48.022;11.810;2022-08-03T02:00:39;18.10;99.90
13035;DHT22;6584;48.022;11.810;2022-08-03T02:03:06;18.10;99.90
13035;DHT22;6584;48.022;11.810;2022-08-03T02:05:33;18.10;99.90
13035;DHT22;6584;48.022;11.810;2022-08-03T02:08:01;18.00;99.90
13035;DHT22;6584;48.022;11.810;2022-08-03T02:10:28;18.00;99.90
13035;DHT22;6584;48.022;11.810;2022-08-03T02:12:58;18.00;99.90
13035;DHT22;6584;48.022;11.810;2022-08-03T02:15:27;18.10;99.90
13035;DHT22;6584;48.022;11.810;2022-08-03T02:17:55;18.00;99.90
13035;DHT22;6584;48.022;11.810;2022-08-03T02:20:22;17.90;99.90
13035;DHT22;6584;48.022;11.810;2022-08-03T02:22:48;18.00;99.90
13035;DHT22;6584;48.022;11.810;2022-08-03T02:25:14;18.00;99.90
13035;DHT22;6584;48.022;11.810;2022-08-03T02:28:00;18.10;99.90
13035;DHT22;6584;48.022;11.810;2022-08-03T02:30:33;18.00;99.90
13035;DHT22;6584;48.022;11.810;2022-08-03T02:33:04;17.90;99.90
13035;DHT22;6584;48.022;11.810;2022-08-03T02:35:31;17.90;99.90
13035;DHT22;6584;48.022;11.810;2022-08-03T02:38:02;17.90;99.90
13035;DHT22;6584;48.022;11.810;2022-08-03T02:40:29;17.80;99.90
13035;DHT22;6584;48.022;11.810;2022-08-03T02:42:59;17.70;99.90
13035;DHT22;6584;48.022;11.810;2022-08-03T02:45:27;17.70;99.90
13035;DHT22;6584;48.022;11.810;2022-08-03T02:47:57;17.60;99.90
13035;DHT22;6584;48.022;11.810;2022-08-03T02:50:25;17.70;99.90
13035;DHT22;6584;48.022;11.810;2022-08-03T02:52:51;17.70;99.90
13035;DHT22;6584;48.022;11.810;2022-08-03T02:55:19;17.70;99.90
13035;DHT22;6584;48.022;11.810;2022-08-03T02:57:46;17.70;99.90
13035;DHT22;6584;48.022;11.810;2022-08-03T03:00:13;17.70;99.90
13035;DHT22;6584;48.022;11.810;2022-08-03T03:02:40;17.70;99.90
13035;DHT22;6584;48.022;11.810;2022-08-03T03:05:07;17.60;99.90
13035;DHT22;6584;48.022;11.810;2022-08-03T03:07:35;17.60;99.90
13035;DHT22;6584;48.022;11.810;2022-08-03T03:10:03;17.50;99.90
13035;DHT22;6584;48.022;11.810;2022-08-03T03:12:30;17.50;99.90
13035;DHT22;6584;48.022;11.810;2022-08-03T03:14:56;17.50;99.90
13035;DHT22;6584;48.022;11.810;2022-08-03T03:17:23;17.50;99.90
13035;DHT22;6584;48.022;11.810;2022-08-03T03:19:49;17.40;99.90
13035;DHT22;6584;48.022;11.810;2022-08-03T03:22:16;17.30;99.90
13035;DHT22;6584;48.022;11.810;2022-08-03T03:24:43;17.40;99.90
13035;DHT22;6584;48.022;11.810;2022-08-03T03:27:09;17.30;99.90
13035;DHT22;6584;48.022;11.810;2022-08-03T03:29:35;17.30;99.90
13035;DHT22;6584;48.022;11.810;2022-08-03T03:32:01;17.30;99.90
13035;DHT22;6584;48.022;11.810;2022-08-03T03:34:28;17.30;99.90
13035;DHT22;6584;48.022;11.810;2022-08-03T03:36:54;17.20;99.90
13035;DHT22;6584;48.022;11.810;2022-08-03T03:39:19;17.30;99.90
13035;DHT22;6584;48.022;11.810;2022-08-03T03:41:45;17.30;99.90
13035;DHT22;6584;48.022;11.810;2022-08-03T03:44:11;17.40;99.90
13035;DHT22;6584;48.022;11.810;2022-08-03T03:46:37;17.20;99.90
13035;DHT22;6584;48.022;11.810;2022-08-03T03:49:05;17.30;99.90
13035;DHT22;6584;48.022;11.810;2022-08-03T03:51:31;17.30;99.90
13035;DHT22;6584;48.022;11.810;2022-08-03T03:53:58;17.30;99.90
13035;DHT22;6584;48.022;11.810;2022-08-03T03:56:24;17.20;99.90
13035;DHT22;6584;48.022;11.810;2022-08-03T03:58:50;17.10;99.90
13035;DHT22;6584;48.022;11.810;2022-08-03T04:01:16;17.10;99.90
13035;DHT22;6584;48.022;11.810;2022-08-03T04:03:41;17.10;99.90
13035;DHT22;6584;48.022;11.810;2022-08-03T04:06:07;17.10;99.90
13035;DHT22;6584;48.022;11.810;2022-08-03T04:08:51;17.10;99.90
13035;DHT22;6584;48.022;11.810;2022-08-03T04:11:53;17.20;99.90
13035;DHT22;6584;48.022;11.810;2022-08-03T04:14:31;17.20;99.90
13035;DHT22;6584;48.022;11.810;2022-08-03T04:17:02;17.30;99.90
13035;DHT22;6584;48.022;11.810;2022-08-03T04:19:42;17.30;99.90
13035;DHT22;6584;48.022;11.810;2022-08-03T04:22:10;17.20;99.90
13035;DHT22;6584;48.022;11.810;2022-08-03T04:24:47;17.10;99.90
13035;DHT22;6584;48.022;11.810;2022-08-03T04:27:16;17.20;99.90
13035;DHT22;6584;48.022;11.810;2022-08-03T04:29:45;17.10;99.90
13035;DHT22;6584;48.022;11.810;2022-08-03T04:32:12;17.20;99.90
13035;DHT22;6584;48.022;11.810;2022-08-03T04:34:38;17.20;99.90
13035;DHT22;6584;48.022;11.810;2022-08-03T04:37:09;17.30;99.90
13035;DHT22;6584;48.022;11.810;2022-08-03T04:39:36;17.40;99.90
13035;DHT22;6584;48.022;11.810;2022-08-03T04:42:06;17.40;99.90
13035;DHT22;6584;48.022;11.810;2022-08-03T04:44:36;17.40;99.90
13035;DHT22;6584;48.022;11.810;2022-08-03T04:47:02;17.40;99.90
13035;DHT22;6584;48.022;11.810;2022-08-03T04:49:29;17.50;99.90
13035;DHT22;6584;48.022;11.810;2022-08-03T04:51:55;17.70;99.90
13035;DHT22;6584;48.022;11.810;2022-08-03T04:54:20;17.90;99.90
13035;DHT22;6584;48.022;11.810;2022-08-03T04:56:46;18.00;99.90
13035;DHT22;6584;48.022;11.810;2022-08-03T04:59:12;18.20;99.90
13035;DHT22;6584;48.022;11.810;2022-08-03T05:01:39;18.40;99.90
13035;DHT22;6584;48.022;11.810;2022-08-03T05:04:06;18.40;99.90
13035;DHT22;6584;48.022;11.810;2022-08-03T05:06:31;18.50;99.90
13035;DHT22;6584;48.022;11.810;2022-08-03T05:08:57;19.00;99.90
13035;DHT22;6584;48.022;11.810;2022-08-03T05:11:22;19.50;99.90
13035;DHT22;6584;48.022;11.810;2022-08-03T05:13:48;19.90;99.90
13035;DHT22;6584;48.022;11.810;2022-08-03T05:16:14;20.30;99.90
13035;DHT22;6584;48.022;11.810;2022-08-03T05:18:41;20.80;99.90
13035;DHT22;6584;48.022;11.810;2022-08-03T05:21:07;21.90;99.90
13035;DHT22;6584;48.022;11.810;2022-08-03T05:23:33;23.50;99.90
13035;DHT22;6584;48.022;11.810;2022-08-03T05:25:59;24.80;99.00
13035;DHT22;6584;48.022;11.810;2022-08-03T05:28:24;25.70;99.10
13035;DHT22;6584;48.022;11.810;2022-08-03T05:30:50;27.60;96.30
13035;DHT22;6584;48.022;11.810;2022-08-03T05:33:15;28.60;92.90
13035;DHT22;6584;48.022;11.810;2022-08-03T05:35:41;28.40;92.80
13035;DHT22;6584;48.022;11.810;2022-08-03T05:38:07;28.20;93.20
13035;DHT22;6584;48.022;11.810;2022-08-03T05:40:33;28.60;92.80
13035;DHT22;6584;48.022;11.810;2022-08-03T05:42:58;29.20;91.80
13035;DHT22;6584;48.022;11.810;2022-08-03T05:45:24;29.20;91.40
13035;DHT22;6584;48.022;11.810;2022-08-03T05:47:50;29.50;91.20
13035;DHT22;6584;48.022;11.810;2022-08-03T05:50:18;30.00;91.00
13035;DHT22;6584;48.022;11.810;2022-08-03T05:52:44;30.70;89.10
13035;DHT22;6584;48.022;11.810;2022-08-03T05:55:10;30.50;89.90
13035;DHT22;6584;48.022;11.810;2022-08-03T05:57:36;30.40;90.00
13035;DHT22;6584;48.022;11.810;2022-08-03T06:00:06;30.80;89.30
13035;DHT22;6584;48.022;11.810;2022-08-03T06:02:32;31.40;86.50
13035;DHT22;6584;48.022;11.810;2022-08-03T06:04:58;31.70;85.80
13035;DHT22;6584;48.022;11.810;2022-08-03T06:07:23;31.40;86.30
13035;DHT22;6584;48.022;11.810;2022-08-03T06:09:49;31.60;85.10
13035;DHT22;6584;48.022;11.810;2022-08-03T06:12:15;31.70;84.70
13035;DHT22;6584;48.022;11.810;2022-08-03T06:14:40;31.70;85.30
13035;DHT22;6584;48.022;11.810;2022-08-03T06:17:06;31.90;84.10
13035;DHT22;6584;48.022;11.810;2022-08-03T06:19:31;31.70;84.40
13035;DHT22;6584;48.022;11.810;2022-08-03T06:21:57;32.10;83.40
13035;DHT22;6584;48.022;11.810;2022-08-03T06:24:22;32.80;80.20
13035;DHT22;6584;48.022;11.810;2022-08-03T06:26:48;32.90;80.40
13035;DHT22;6584;48.022;11.810;2022-08-03T06:29:13;32.50;81.20
13035;DHT22;6584;48.022;11.810;2022-08-03T06:31:39;32.30;83.10
13035;DHT22;6584;48.022;11.810;2022-08-03T06:34:05;33.20;78.20
13035;DHT22;6584;48.022;11.810;2022-08-03T06:36:31;32.70;78.10
13035;DHT22;6584;48.022;11.810;2022-08-03T06:38:57;32.90;75.60
13035;DHT22;6584;48.022;11.810;2022-08-03T06:41:24;32.60;76.00
13035;DHT22;6584;48.022;11.810;2022-08-03T06:43:49;32.90;77.10
13035;DHT22;6584;48.022;11.810;2022-08-03T06:46:15;33.10;75.20
13035;DHT22;6584;48.022;11.810;2022-08-03T06:48:41;32.80;76.50
13035;DHT22;6584;48.022;11.810;2022-08-03T06:51:06;32.60;76.80
13035;DHT22;6584;48.022;11.810;2022-08-03T06:53:32;32.70;77.40
13035;DHT22;6584;48.022;11.810;2022-08-03T06:55:57;32.70;75.00
13035;DHT22;6584;48.022;11.810;2022-08-03T06:58:23;32.40;76.80
13035;DHT22;6584;48.022;11.810;2022-08-03T07:00:49;32.40;77.00
13035;DHT22;6584;48.022;11.810;2022-08-03T07:03:15;31.70;78.50
13035;DHT22;6584;48.022;11.810;2022-08-03T07:05:41;32.50;75.90
13035;DHT22;6584;48.022;11.810;2022-08-03T07:08:08;32.40;77.80
13035;DHT22;6584;48.022;11.810;2022-08-03T07:10:33;31.20;79.40
13035;DHT22;6584;48.022;11.810;2022-08-03T07:12:59;30.90;81.60
13035;DHT22;6584;48.022;11.810;2022-08-03T07:15:24;31.60;79.80
13035;DHT22;6584;48.022;11.810;2022-08-03T07:17:50;31.60;80.20
13035;DHT22;6584;48.022;11.810;2022-08-03T07:20:16;30.30;81.30
13035;DHT22;6584;48.022;11.810;2022-08-03T07:22:43;30.30;82.60
13035;DHT22;6584;48.022;11.810;2022-08-03T07:25:09;30.20;81.30
13035;DHT22;6584;48.022;11.810;2022-08-03T07:27:34;29.90;82.30
13035;DHT22;6584;48.022;11.810;2022-08-03T07:30:00;29.30;83.30
13035;DHT22;6584;48.022;11.810;2022-08-03T07:32:26;28.80;85.00
13035;DHT22;6584;48.022;11.810;2022-08-03T07:34:55;28.00;85.90
13035;DHT22;6584;48.022;11.810;2022-08-03T07:37:21;27.60;85.90
13035;DHT22;6584;48.022;11.810;2022-08-03T07:39:46;27.30;86.30
13035;DHT22;6584;48.022;11.810;2022-08-03T07:42:12;26.90;88.90
13035;DHT22;6584;48.022;11.810;2022-08-03T07:44:37;26.90;89.50
13035;DHT22;6584;48.022;11.810;2022-08-03T07:47:03;26.90;90.00
13035;DHT22;6584;48.022;11.810;2022-08-03T07:49:29;26.90;90.30
13035;DHT22;6584;48.022;11.810;2022-08-03T07:51:55;27.00;90.50
13035;DHT22;6584;48.022;11.810;2022-08-03T07:54:39;26.90;90.70
13035;DHT22;6584;48.022;11.810;2022-08-03T07:57:04;26.80;91.00
13035;DHT22;6584;48.022;11.810;2022-08-03T07:59:30;26.80;91.30
13035;DHT22;6584;48.022;11.810;2022-08-03T08:01:56;26.70;91.70
13035;DHT22;6584;48.022;11.810;2022-08-03T08:04:21;26.80;91.10
13035;DHT22;6584;48.022;11.810;2022-08-03T08:06:47;26.70;92.00
13035;DHT22;6584;48.022;11.810;2022-08-03T08:09:13;26.60;92.80
13035;DHT22;6584;48.022;11.810;2022-08-03T08:11:38;26.60;91.90
13035;DHT22;6584;48.022;11.810;2022-08-03T08:14:04;26.50;92.10
13035;DHT22;6584;48.022;11.810;2022-08-03T08:16:31;26.50;92.40
13035;DHT22;6584;48.022;11.810;2022-08-03T08:18:57;26.70;91.90
13035;DHT22;6584;48.022;11.810;2022-08-03T08:21:23;26.90;91.20
13035;DHT22;6584;48.022;11.810;2022-08-03T08:23:48;26.80;90.70
13035;DHT22;6584;48.022;11.810;2022-08-03T08:26:14;26.80;91.40
13035;DHT22;6584;48.022;11.810;2022-08-03T08:28:40;26.90;91.50
13035;DHT22;6584;48.022;11.810;2022-08-03T08:31:05;26.80;91.70
13035;DHT22;6584;48.022;11.810;2022-08-03T08:33:31;26.80;92.10
13035;DHT22;6584;48.022;11.810;2022-08-03T08:35:59;26.70;92.00
13035;DHT22;6584;48.022;11.810;2022-08-03T08:38:25;26.40;92.30
13035;DHT22;6584;48.022;11.810;2022-08-03T08:40:53;26.60;93.00
13035;DHT22;6584;48.022;11.810;2022-08-03T08:43:19;26.80;92.90
13035;DHT22;6584;48.022;11.810;2022-08-03T08:45:48;26.80;92.40
13035;DHT22;6584;48.022;11.810;2022-08-03T08:48:14;27.00;92.80
13035;DHT22;6584;48.022;11.810;2022-08-03T08:50:42;27.20;92.30
13035;DHT22;6584;48.022;11.810;2022-08-03T08:53:10;27.30;91.80
13035;DHT22;6584;48.022;11.810;2022-08-03T08:55:37;27.30;91.70
13035;DHT22;6584;48.022;11.810;2022-08-03T08:58:05;27.30;91.50
13035;DHT22;6584;48.022;11.810;2022-08-03T09:00:30;27.20;92.00
13035;DHT22;6584;48.022;11.810;2022-08-03T09:02:57;27.40;92.10
13035;DHT22;6584;48.022;11.810;2022-08-03T09:05:22;27.50;91.50
13035;DHT22;6584;48.022;11.810;2022-08-03T09:07:48;27.50;91.80
13035;DHT22;6584;48.022;11.810;2022-08-03T09:10:16;27.50;91.90
13035;DHT22;6584;48.022;11.810;2022-08-03T09:12:53;26.90;92.20
13035;DHT22;6584;48.022;11.810;2022-08-03T09:15:38;26.90;92.70
13035;DHT22;6584;48.022;11.810;2022-08-03T09:18:03;27.20;92.70
13035;DHT22;6584;48.022;11.810;2022-08-03T09:20:31;27.40;92.80
13035;DHT22;6584;48.022;11.810;2022-08-03T09:23:02;27.40;91.40
13035;DHT22;6584;48.022;11.810;2022-08-03T09:25:34;27.20;91.80
13035;DHT22;6584;48.022;11.810;2022-08-03T09:28:05;27.20;90.70
13035;DHT22;6584;48.022;11.810;2022-08-03T09:30:31;27.00;91.30
13035;DHT22;6584;48.022;11.810;2022-08-03T09:33:04;27.10;91.40
13035;DHT22;6584;48.022;11.810;2022-08-03T09:35:31;27.20;92.10
13035;DHT22;6584;48.022;11.810;2022-08-03T09:38:14;27.50;92.00
13035;DHT22;6584;48.022;11.810;2022-08-03T09:40:41;27.50;90.60
13035;DHT22;6584;48.022;11.810;2022-08-03T09:43:07;27.40;91.80
13035;DHT22;6584;48.022;11.810;2022-08-03T09:45:34;27.40;91.50
13035;DHT22;6584;48.022;11.810;2022-08-03T09:48:23;27.60;91.20
13035;DHT22;6584;48.022;11.810;2022-08-03T09:50:54;27.60;90.20
13035;DHT22;6584;48.022;11.810;2022-08-03T09:53:21;27.40;91.00
13035;DHT22;6584;48.022;11.810;2022-08-03T09:58:24;27.50;91.20
13035;DHT22;6584;48.022;11.810;2022-08-03T10:03:25;27.40;91.50
13035;DHT22;6584;48.022;11.810;2022-08-03T10:05:51;27.40;91.50
13035;DHT22;6584;48.022;11.810;2022-08-03T10:08:18;27.50;90.40
13035;DHT22;6584;48.022;11.810;2022-08-03T10:10:49;27.40;91.40
13035;DHT22;6584;48.022;11.810;2022-08-03T10:13:16;27.30;91.80
13035;DHT22;6584;48.022;11.810;2022-08-03T10:15:43;27.30;91.70
13035;DHT22;6584;48.022;11.810;2022-08-03T10:18:08;27.50;90.90
13035;DHT22;6584;48.022;11.810;2022-08-03T10:20:44;27.60;90.10
13035;DHT22;6584;48.022;11.810;2022-08-03T10:23:10;27.60;90.80
13035;DHT22;6584;48.022;11.810;2022-08-03T10:25:37;27.60;91.70
13035;DHT22;6584;48.022;11.810;2022-08-03T10:28:04;27.60;91.00
13035;DHT22;6584;48.022;11.810;2022-08-03T10:30:32;27.70;91.40
13035;DHT22;6584;48.022;11.810;2022-08-03T10:33:19;27.80;90.30
13035;DHT22;6584;48.022;11.810;2022-08-03T10:35:53;27.90;90.00
13035;DHT22;6584;48.022;11.810;2022-08-03T10:38:24;27.80;90.30
13035;DHT22;6584;48.022;11.810;2022-08-03T10:40:53;27.90;90.00
13035;DHT22;6584;48.022;11.810;2022-08-03T10:43:26;27.80;87.50
13035;DHT22;6584;48.022;11.810;2022-08-03T10:45:52;27.80;90.10
13035;DHT22;6584;48.022;11.810;2022-08-03T10:48:19;27.80;90.00
13035;DHT22;6584;48.022;11.810;2022-08-03T10:50:47;27.80;89.80
13035;DHT22;6584;48.022;11.810;2022-08-03T10:53:13;27.90;88.90
13035;DHT22;6584;48.022;11.810;2022-08-03T10:55:44;27.80;90.00
13035;DHT22;6584;48.022;11.810;2022-08-03T11:01:10;28.00;87.30
13035;DHT22;6584;48.022;11.810;2022-08-03T11:04:14;27.90;88.40
13035;DHT22;6584;48.022;11.810;2022-08-03T11:06:40;28.00;88.20
13035;DHT22;6584;48.022;11.810;2022-08-03T11:11:38;28.00;88.70
13035;DHT22;6584;48.022;11.810;2022-08-03T11:16:35;28.00;88.00
13035;DHT22;6584;48.022;11.810;2022-08-03T11:19:06;28.10;88.20
13035;DHT22;6584;48.022;11.810;2022-08-03T11:35:23;28.40;83.50
13035;DHT22;6584;48.022;11.810;2022-08-03T11:46:03;28.50;78.80
13035;DHT22;6584;48.022;11.810;2022-08-03T11:48:54;28.60;78.00
13035;DHT22;6584;48.022;11.810;2022-08-03T11:51:29;28.40;82.10
13035;DHT22;6584;48.022;11.810;2022-08-03T11:53:58;28.50;84.20
13035;DHT22;6584;48.022;11.810;2022-08-03T11:56:24;28.70;84.60
13035;DHT22;6584;48.022;11.810;2022-08-03T11:58:52;28.50;81.90
13035;DHT22;6584;48.022;11.810;2022-08-03T12:01:19;28.60;83.40
13035;DHT22;6584;48.022;11.810;2022-08-03T12:03:45;28.70;82.90
13035;DHT22;6584;48.022;11.810;2022-08-03T12:06:13;28.80;82.40
13035;DHT22;6584;48.022;11.810;2022-08-03T12:08:40;28.50;80.00
13035;DHT22;6584;48.022;11.810;2022-08-03T12:11:08;28.60;81.40
13035;DHT22;6584;48.022;11.810;2022-08-03T12:13:42;28.50;82.50
13035;DHT22;6584;48.022;11.810;2022-08-03T12:16:07;28.60;80.70
13035;DHT22;6584;48.022;11.810;2022-08-03T12:18:34;28.60;78.10
13035;DHT22;6584;48.022;11.810;2022-08-03T12:21:07;28.80;75.70
13035;DHT22;6584;48.022;11.810;2022-08-03T12:23:34;28.80;75.60
13035;DHT22;6584;48.022;11.810;2022-08-03T12:26:05;28.90;77.40
13035;DHT22;6584;48.022;11.810;2022-08-03T12:28:31;28.90;76.80
13035;DHT22;6584;48.022;11.810;2022-08-03T12:31:01;28.90;78.00
13035;DHT22;6584;48.022;11.810;2022-08-03T12:33:27;28.90;78.90
13035;DHT22;6584;48.022;11.810;2022-08-03T12:36:08;29.00;77.80
13035;DHT22;6584;48.022;11.810;2022-08-03T12:38:37;29.20;70.30
13035;DHT22;6584;48.022;11.810;2022-08-03T12:41:07;29.20;72.10
13035;DHT22;6584;48.022;11.810;2022-08-03T12:43:33;29.30;71.10
13035;DHT22;6584;48.022;11.810;2022-08-03T12:46:10;29.30;69.60
13035;DHT22;6584;48.022;11.810;2022-08-03T12:48:35;29.20;71.50
13035;DHT22;6584;48.022;11.810;2022-08-03T12:51:09;29.20;70.80
13035;DHT22;6584;48.022;11.810;2022-08-03T12:53:35;29.20;70.60
13035;DHT22;6584;48.022;11.810;2022-08-03T12:56:02;29.30;73.20
13035;DHT22;6584;48.022;11.810;2022-08-03T12:58:33;29.50;74.80
13035;DHT22;6584;48.022;11.810;2022-08-03T13:00:58;29.50;73.40
13035;DHT22;6584;48.022;11.810;2022-08-03T13:03:24;29.50;72.00
13035;DHT22;6584;48.022;11.810;2022-08-03T13:05:50;29.50;69.60
13035;DHT22;6584;48.022;11.810;2022-08-03T13:08:20;29.50;69.70
13035;DHT22;6584;48.022;11.810;2022-08-03T13:10:46;29.40;70.50
13035;DHT22;6584;48.022;11.810;2022-08-03T13:13:12;29.50;69.40
13035;DHT22;6584;48.022;11.810;2022-08-03T13:15:39;29.40;67.30
13035;DHT22;6584;48.022;11.810;2022-08-03T13:18:05;29.50;68.20
13035;DHT22;6584;48.022;11.810;2022-08-03T13:20:30;29.50;65.30
13035;DHT22;6584;48.022;11.810;2022-08-03T13:22:56;29.40;68.40
13035;DHT22;6584;48.022;11.810;2022-08-03T13:25:22;29.50;67.80
13035;DHT22;6584;48.022;11.810;2022-08-03T13:27:48;29.50;69.40
13035;DHT22;6584;48.022;11.810;2022-08-03T13:30:14;29.50;68.00
13035;DHT22;6584;48.022;11.810;2022-08-03T13:32:40;29.60;68.00
13035;DHT22;6584;48.022;11.810;2022-08-03T13:35:06;29.50;68.30
13035;DHT22;6584;48.022;11.810;2022-08-03T13:37:33;29.50;69.00
13035;DHT22;6584;48.022;11.810;2022-08-03T13:39:59;29.40;69.30
13035;DHT22;6584;48.022;11.810;2022-08-03T13:42:27;29.50;68.30
13035;DHT22;6584;48.022;11.810;2022-08-03T13:44:52;29.50;67.30
13035;DHT22;6584;48.022;11.810;2022-08-03T13:47:18;29.50;69.10
13035;DHT22;6584;48.022;11.810;2022-08-03T13:49:44;29.50;70.80
13035;DHT22;6584;48.022;11.810;2022-08-03T13:52:09;29.30;68.60
13035;DHT22;6584;48.022;11.810;2022-08-03T13:54:35;29.40;67.40
13035;DHT22;6584;48.022;11.810;2022-08-03T13:57:00;29.50;66.80
13035;DHT22;6584;48.022;11.810;2022-08-03T13:59:26;29.50;67.00
13035;DHT22;6584;48.022;11.810;2022-08-03T14:01:52;29.60;67.40
13035;DHT22;6584;48.022;11.810;2022-08-03T14:04:18;29.40;70.00
13035;DHT22;6584;48.022;11.810;2022-08-03T14:06:44;29.50;70.90
13035;DHT22;6584;48.022;11.810;2022-08-03T14:09:13;29.60;66.60
13035;DHT22;6584;48.022;11.810;2022-08-03T14:11:43;29.90;66.60
13035;DHT22;6584;48.022;11.810;2022-08-03T14:14:09;29.80;65.70
13035;DHT22;6584;48.022;11.810;2022-08-03T14:16:35;30.00;63.80
13035;DHT22;6584;48.022;11.810;2022-08-03T14:19:01;30.00;64.00
13035;DHT22;6584;48.022;11.810;2022-08-03T14:21:26;29.90;65.20
13035;DHT22;6584;48.022;11.810;2022-08-03T14:23:52;29.90;64.80
13035;DHT22;6584;48.022;11.810;2022-08-03T14:26:17;29.90;63.20
13035;DHT22;6584;48.022;11.810;2022-08-03T14:28:44;29.90;63.20
13035;DHT22;6584;48.022;11.810;2022-08-03T14:31:10;29.90;64.50
13035;DHT22;6584;48.022;11.810;2022-08-03T14:33:36;29.90;64.30
13035;DHT22;6584;48.022;11.810;2022-08-03T14:36:01;29.90;64.50
13035;DHT22;6584;48.022;11.810;2022-08-03T14:38:27;29.70;66.60
13035;DHT22;6584;48.022;11.810;2022-08-03T14:40:53;29.70;67.50
13035;DHT22;6584;48.022;11.810;2022-08-03T14:43:18;29.90;64.70
13035;DHT22;6584;48.022;11.810;2022-08-03T14:45:51;29.90;61.40
13035;DHT22;6584;48.022;11.810;2022-08-03T14:48:22;29.80;62.70
13035;DHT22;6584;48.022;11.810;2022-08-03T14:53:15;29.90;62.20
13035;DHT22;6584;48.022;11.810;2022-08-03T14:55:42;29.90;63.50
13035;DHT22;6584;48.022;11.810;2022-08-03T14:58:07;30.00;62.50
13035;DHT22;6584;48.022;11.810;2022-08-03T15:00:34;30.00;63.50
13035;DHT22;6584;48.022;11.810;2022-08-03T15:03:00;30.00;64.50
13035;DHT22;6584;48.022;11.810;2022-08-03T15:05:26;30.00;63.10
13035;DHT22;6584;48.022;11.810;2022-08-03T15:07:52;30.00;63.30
13035;DHT22;6584;48.022;11.810;2022-08-03T15:10:17;30.10;61.30
13035;DHT22;6584;48.022;11.810;2022-08-03T15:12:43;29.90;62.80
13035;DHT22;6584;48.022;11.810;2022-08-03T15:15:09;30.00;64.10
13035;DHT22;6584;48.022;11.810;2022-08-03T15:17:35;30.10;60.40
13035;DHT22;6584;48.022;11.810;2022-08-03T15:20:00;29.90;62.10
13035;DHT22;6584;48.022;11.810;2022-08-03T15:22:26;30.00;61.90
13035;DHT22;6584;48.022;11.810;2022-08-03T15:24:52;30.00;61.40
13035;DHT22;6584;48.022;11.810;2022-08-03T15:27:18;30.00;63.00
13035;DHT22;6584;48.022;11.810;2022-08-03T15:29:43;29.90;60.80
13035;DHT22;6584;48.022;11.810;2022-08-03T15:32:09;30.00;64.10
13035;DHT22;6584;48.022;11.810;2022-08-03T15:34:34;30.00;61.00
13035;DHT22;6584;48.022;11.810;2022-08-03T15:37:00;30.00;61.80
13035;DHT22;6584;48.022;11.810;2022-08-03T15:39:25;30.00;61.60
13035;DHT22;6584;48.022;11.810;2022-08-03T15:41:51;30.00;61.80
13035;DHT22;6584;48.022;11.810;2022-08-03T15:44:19;29.90;61.20
13035;DHT22;6584;48.022;11.810;2022-08-03T15:46:45;29.90;63.00
13035;DHT22;6584;48.022;11.810;2022-08-03T15:49:12;29.90;64.10
13035;DHT22;6584;48.022;11.810;2022-08-03T15:51:38;30.00;60.80
13035;DHT22;6584;48.022;11.810;2022-08-03T15:54:04;30.00;60.20
13035;DHT22;6584;48.022;11.810;2022-08-03T15:56:30;29.90;62.80
13035;DHT22;6584;48.022;11.810;2022-08-03T15:58:56;29.90;61.90
13035;DHT22;6584;48.022;11.810;2022-08-03T16:01:23;30.00;60.80
13035;DHT22;6584;48.022;11.810;2022-08-03T16:03:49;30.00;60.80
13035;DHT22;6584;48.022;11.810;2022-08-03T16:06:15;29.90;60.70
13035;DHT22;6584;48.022;11.810;2022-08-03T16:08:41;29.70;61.80
13035;DHT22;6584;48.022;11.810;2022-08-03T16:11:07;29.70;63.80
13035;DHT22;6584;48.022;11.810;2022-08-03T16:13:32;29.70;61.90
13035;DHT22;6584;48.022;11.810;2022-08-03T16:15:58;29.70;60.30
13035;DHT22;6584;48.022;11.810;2022-08-03T16:18:24;29.70;61.70
13035;DHT22;6584;48.022;11.810;2022-08-03T16:20:50;29.70;63.30